Time;durP1;ratioP1;P1;durP2;ratioP2;P2;SDS_P1;SDS_P2;PMS_P1;PMS_P2;Temp;Humidity;BMP_temperature;BMP_pressure;BME280_temperature;BME280_humidity;BME280_pressure;Samples;Min_cycle;Max_cycle;Signal;HPM_P1;HPM_P2
2022/07/07 00:02:43;;;;;;;5.65;1.80;;;17.90;78.00;;;;;;6860010;28;20447;-80
2022/07/07 00:06:05;;;;;;;4.32;1.67;;;17.80;79.30;;;;;;6861496;28;20443;-80
2022/07/07 00:09:29;;;;;;;5.55;1.75;;;17.60;79.10;;;;;;6859887;28;20439;-79
2022/07/07 00:12:53;;;;;;;5.28;1.80;;;17.70;79.80;;;;;;6861926;28;20912;-80
2022/07/07 00:16:15;;;;;;;5.50;1.90;;;17.60;78.60;;;;;;6860946;28;20963;-79
2022/07/07 00:19:38;;;;;;;5.72;1.92;;;17.50;80.20;;;;;;6860857;28;20471;-80
2022/07/07 00:23:00;;;;;;;5.18;1.75;;;17.50;80.80;;;;;;6860946;28;20530;-78
2022/07/07 00:26:22;;;;;;;5.97;1.98;;;17.50;80.50;;;;;;6859778;28;20574;-79
2022/07/07 00:29:45;;;;;;;5.03;1.70;;;17.50;80.40;;;;;;6861286;28;20436;-78
2022/07/07 00:33:07;;;;;;;6.07;1.63;;;17.50;80.10;;;;;;6861661;28;20460;-79
2022/07/07 00:36:29;;;;;;;3.72;1.65;;;17.50;79.20;;;;;;6860663;28;20475;-79
2022/07/07 00:39:51;;;;;;;4.38;1.80;;;17.60;78.10;;;;;;6859051;28;20947;-80
2022/07/07 00:43:13;;;;;;;4.32;1.80;;;17.50;79.30;;;;;;6885643;28;20477;-77
2022/07/07 00:46:45;;;;;;;4.82;2.05;;;17.40;80.70;;;;;;6859701;28;20497;-76
2022/07/07 00:50:08;;;;;;;4.78;1.70;;;17.30;81.90;;;;;;6860277;28;20918;-75
2022/07/07 00:53:30;;;;;;;4.07;1.90;;;17.30;80.60;;;;;;6858895;28;20444;-77
2022/07/07 00:56:52;;;;;;;4.20;1.75;;;17.20;81.00;;;;;;6858801;28;20475;-78
2022/07/07 01:00:16;;;;;;;4.00;1.70;;;17.10;82.50;;;;;;6887688;28;20490;-79
2022/07/07 01:03:40;;;;;;;5.50;1.83;;;17.00;79.60;;;;;;6887181;28;20493;-80
2022/07/07 01:07:02;;;;;;;5.70;1.80;;;17.00;79.60;;;;;;6869736;28;20435;-78
2022/07/07 01:10:24;;;;;;;4.45;1.92;;;16.90;81.40;;;;;;6860183;28;20436;-78
2022/07/07 01:13:46;;;;;;;5.05;1.92;;;16.80;82.00;;;;;;6859853;28;20440;-80
2022/07/07 01:17:08;;;;;;;5.23;1.93;;;16.70;81.40;;;;;;6859159;28;20498;-80
2022/07/07 01:20:32;;;;;;;5.32;1.90;;;16.70;83.70;;;;;;6860290;28;20483;-77
2022/07/07 01:23:55;;;;;;;6.00;2.00;;;16.60;84.80;;;;;;6858886;28;20480;-76
2022/07/07 01:27:20;;;;;;;4.80;1.88;;;16.60;85.70;;;;;;6859603;28;20779;-78
2022/07/07 01:30:43;;;;;;;4.85;1.80;;;16.60;85.70;;;;;;6859808;28;20448;-77
2022/07/07 01:34:05;;;;;;;4.60;1.90;;;16.70;84.20;;;;;;6859459;28;20814;-77
2022/07/07 01:37:27;;;;;;;5.72;1.90;;;16.80;82.50;;;;;;6859013;28;20448;-78
2022/07/07 01:40:51;;;;;;;5.05;2.00;;;16.80;82.30;;;;;;6858382;28;20444;-77
2022/07/07 01:44:13;;;;;;;4.85;1.88;;;16.90;82.10;;;;;;6859880;28;20490;-80
2022/07/07 01:47:35;;;;;;;6.23;1.93;;;16.90;81.50;;;;;;6842445;28;20485;-81
2022/07/07 01:50:57;;;;;;;5.10;1.80;;;16.90;82.40;;;;;;6833070;29;20472;-79
2022/07/07 01:54:19;;;;;;;4.80;1.92;;;16.90;82.30;;;;;;6851931;28;20491;-78
2022/07/07 01:57:42;;;;;;;5.50;2.00;;;17.00;81.40;;;;;;6858564;28;20474;-80
2022/07/07 02:01:04;;;;;;;7.13;2.17;;;16.90;81.90;;;;;;6857151;28;20958;-77
2022/07/07 02:04:26;;;;;;;5.80;2.35;;;16.90;81.70;;;;;;6859132;28;20448;-78
2022/07/07 02:07:49;;;;;;;4.18;1.80;;;16.90;82.30;;;;;;6863416;28;20918;-79
2022/07/07 02:11:13;;;;;;;3.90;1.80;;;16.90;81.30;;;;;;6864213;28;20948;-77
2022/07/07 02:14:37;;;;;;;5.50;1.80;;;16.80;81.70;;;;;;6864463;28;20440;-79
2022/07/07 02:17:59;;;;;;;4.73;1.90;;;16.70;81.80;;;;;;6863209;28;20806;-78
2022/07/07 02:21:23;;;;;;;6.38;2.00;;;16.80;82.10;;;;;;6863679;28;20436;-80
2022/07/07 02:24:47;;;;;;;5.18;2.10;;;16.80;81.60;;;;;;6862389;28;20443;-80
2022/07/07 02:28:09;;;;;;;5.85;1.88;;;16.70;81.80;;;;;;6863560;28;20475;-78
2022/07/07 02:31:33;;;;;;;5.20;1.80;;;16.70;82.50;;;;;;6862835;28;20794;-77
2022/07/07 02:34:57;;;;;;;5.65;1.98;;;16.70;83.10;;;;;;6863250;28;20513;-77
2022/07/07 02:38:19;;;;;;;4.80;1.80;;;16.80;83.10;;;;;;6864032;28;20432;-80
2022/07/07 02:41:41;;;;;;;6.47;2.10;;;16.80;82.40;;;;;;6864064;28;20455;-78
2022/07/07 02:45:04;;;;;;;6.67;2.03;;;16.70;82.70;;;;;;6864120;28;20976;-80
2022/07/07 02:48:28;;;;;;;6.07;1.92;;;16.80;82.90;;;;;;6860778;28;20907;-80
2022/07/07 02:51:50;;;;;;;5.63;2.00;;;16.80;82.40;;;;;;6862953;28;20439;-80
2022/07/07 02:55:12;;;;;;;4.60;1.90;;;16.70;82.40;;;;;;6863110;28;20929;-76
2022/07/07 02:58:34;;;;;;;5.93;2.20;;;16.60;83.20;;;;;;6862791;28;20478;-80
2022/07/07 03:01:56;;;;;;;4.72;1.80;;;16.50;83.30;;;;;;6862504;28;20474;-81
2022/07/07 03:05:20;;;;;;;5.28;2.00;;;16.50;83.30;;;;;;6861911;28;20941;-80
2022/07/07 03:08:42;;;;;;;5.78;1.95;;;16.50;83.30;;;;;;6862007;28;20827;-81
2022/07/07 03:12:05;;;;;;;4.20;1.80;;;16.50;83.30;;;;;;6863451;28;20906;-79
2022/07/07 03:15:27;;;;;;;4.18;1.92;;;16.40;83.70;;;;;;6863211;28;20779;-79
2022/07/07 03:18:49;;;;;;;5.60;2.17;;;16.50;84.50;;;;;;6860625;28;20444;-77
2022/07/07 03:22:13;;;;;;;6.65;2.20;;;16.50;84.10;;;;;;6861625;28;20468;-78
2022/07/07 03:25:35;;;;;;;5.55;2.00;;;16.50;84.20;;;;;;6861485;28;20487;-78
2022/07/07 03:28:57;;;;;;;5.18;2.22;;;16.50;84.30;;;;;;6862963;28;20507;-78
2022/07/07 03:32:19;;;;;;;3.88;1.85;;;16.60;84.60;;;;;;6861188;28;20477;-78
2022/07/07 03:35:41;;;;;;;5.43;1.95;;;16.60;83.50;;;;;;6860991;28;20444;-78
2022/07/07 03:39:05;;;;;;;3.72;1.83;;;16.60;83.70;;;;;;6862628;28;20478;-77
2022/07/07 03:42:27;;;;;;;5.07;2.00;;;16.70;83.80;;;;;;6861709;28;20518;-77
2022/07/07 03:45:50;;;;;;;6.60;2.00;;;16.60;83.90;;;;;;6862357;28;20815;-79
2022/07/07 03:49:12;;;;;;;5.40;2.27;;;16.60;83.90;;;;;;6860057;28;20436;-77
2022/07/07 03:52:34;;;;;;;5.90;2.30;;;16.60;84.20;;;;;;6860833;28;20952;-79
2022/07/07 03:55:58;;;;;;;5.60;2.00;;;16.70;83.80;;;;;;6861197;28;20933;-78
2022/07/07 03:59:20;;;;;;;5.37;2.00;;;16.70;83.40;;;;;;6862434;28;20473;-79
2022/07/07 04:02:42;;;;;;;4.65;2.10;;;16.60;83.40;;;;;;6861323;28;20526;-80
2022/07/07 04:06:04;;;;;;;4.67;1.77;;;16.60;84.20;;;;;;6862240;28;20435;-79
2022/07/07 04:09:26;;;;;;;4.80;1.80;;;16.70;84.10;;;;;;6861144;28;20443;-80
2022/07/07 04:12:50;;;;;;;5.60;1.90;;;16.70;83.60;;;;;;6861856;28;20448;-79
2022/07/07 04:16:12;;;;;;;4.82;1.75;;;16.70;83.70;;;;;;6860719;28;20451;-78
2022/07/07 04:19:34;;;;;;;4.17;1.80;;;16.60;83.60;;;;;;6860634;28;20439;-81
2022/07/07 04:22:56;;;;;;;5.57;2.00;;;16.60;83.90;;;;;;6883399;28;20558;-78
2022/07/07 04:26:18;;;;;;;5.78;2.08;;;16.50;84.00;;;;;;6835273;29;20476;-78
2022/07/07 04:29:41;;;;;;;4.17;1.87;;;16.50;84.50;;;;;;6840146;28;20435;-79
2022/07/07 04:33:04;;;;;;;4.70;2.20;;;16.50;84.60;;;;;;6860089;28;20481;-78
2022/07/07 04:36:26;;;;;;;6.33;2.27;;;16.40;84.90;;;;;;6861426;28;21053;-79
2022/07/07 04:39:48;;;;;;;5.35;2.60;;;16.30;85.20;;;;;;6861162;28;20439;-79
2022/07/07 04:43:10;;;;;;;6.20;2.40;;;16.20;85.70;;;;;;6860771;28;20476;-80
2022/07/07 04:46:34;;;;;;;7.40;2.47;;;16.10;86.40;;;;;;6887570;28;20474;-79
2022/07/07 04:49:56;;;;;;;6.00;2.33;;;16.10;87.20;;;;;;6862645;28;20479;-78
2022/07/07 04:53:18;;;;;;;7.90;2.42;;;16.30;86.70;;;;;;6887436;28;20985;-79
2022/07/07 04:56:40;;;;;;;7.32;2.60;;;16.40;86.60;;;;;;6887552;28;20496;-80
2022/07/07 05:00:02;;;;;;;5.53;2.28;;;16.40;86.80;;;;;;6878667;28;20536;-80
2022/07/07 05:03:26;;;;;;;4.95;2.47;;;16.30;87.20;;;;;;6834428;28;20916;-79
2022/07/07 05:06:48;;;;;;;5.28;2.28;;;16.30;87.70;;;;;;6855075;28;20474;-78
2022/07/07 05:10:11;;;;;;;5.25;2.30;;;16.40;87.40;;;;;;6887204;28;20433;-79
2022/07/07 05:13:33;;;;;;;4.68;2.10;;;16.40;87.90;;;;;;6887073;28;20438;-80
2022/07/07 05:16:56;;;;;;;5.97;2.17;;;16.50;86.60;;;;;;6861585;28;20948;-78
2022/07/07 05:20:19;;;;;;;5.53;2.37;;;16.40;86.80;;;;;;6859606;28;20436;-79
2022/07/07 05:23:41;;;;;;;5.53;2.10;;;16.40;86.90;;;;;;6887141;28;20438;-79
2022/07/07 05:27:04;;;;;;;5.35;2.15;;;16.20;87.40;;;;;;6887097;28;20789;-80
2022/07/07 05:30:26;;;;;;;4.70;2.10;;;16.20;87.60;;;;;;6871298;28;20471;-78
2022/07/07 05:33:49;;;;;;;6.38;2.28;;;16.30;87.50;;;;;;6886428;28;20469;-79
2022/07/07 05:37:12;;;;;;;4.37;2.00;;;16.30;87.80;;;;;;6884321;28;20437;-78
2022/07/07 05:40:35;;;;;;;7.57;2.30;;;16.30;87.40;;;;;;6859038;28;20944;-77
2022/07/07 05:43:57;;;;;;;4.50;2.20;;;16.30;87.60;;;;;;6859012;28;20447;-76
2022/07/07 05:47:19;;;;;;;5.57;2.30;;;16.30;87.50;;;;;;6859431;28;20439;-78
2022/07/07 05:50:41;;;;;;;6.05;2.20;;;16.30;87.60;;;;;;6858673;28;20470;-79
2022/07/07 05:54:04;;;;;;;6.47;2.30;;;16.40;87.40;;;;;;6885782;28;20462;-79
2022/07/07 05:57:26;;;;;;;6.07;2.23;;;16.30;87.80;;;;;;6859531;28;20436;-77
2022/07/07 06:00:48;;;;;;;4.82;2.20;;;16.40;87.60;;;;;;6859446;28;20446;-78
2022/07/07 06:04:10;;;;;;;7.88;2.25;;;16.40;88.00;;;;;;6858886;28;20447;-77
2022/07/07 06:07:33;;;;;;;5.57;2.13;;;16.40;87.70;;;;;;6860100;28;20439;-76
2022/07/07 06:10:56;;;;;;;4.80;2.00;;;16.50;88.30;;;;;;6858740;28;20440;-77
2022/07/07 06:14:18;;;;;;;6.40;2.00;;;16.60;88.40;;;;;;6859294;28;20440;-80
2022/07/07 06:17:41;;;;;;;6.72;2.30;;;16.60;88.80;;;;;;6859676;28;20936;-78
2022/07/07 06:21:03;;;;;;;5.88;2.00;;;16.60;87.80;;;;;;6886203;28;20580;-76
2022/07/07 06:24:25;;;;;;;7.20;2.03;;;16.70;87.80;;;;;;6874617;28;20483;-79
2022/07/07 06:27:48;;;;;;;5.53;2.10;;;16.70;87.60;;;;;;6858385;28;20477;-79
2022/07/07 06:31:10;;;;;;;5.00;2.17;;;16.80;87.90;;;;;;6859048;28;20431;-77
2022/07/07 06:34:32;;;;;;;6.50;2.03;;;16.80;86.90;;;;;;6858864;28;21155;-79
2022/07/07 06:37:54;;;;;;;7.17;2.03;;;16.90;87.50;;;;;;6858007;28;20478;-79
2022/07/07 06:41:16;;;;;;;4.45;2.00;;;16.90;87.70;;;;;;6858936;28;20435;-79
2022/07/07 06:44:40;;;;;;;5.15;2.10;;;16.80;88.30;;;;;;6857609;28;20455;-78
2022/07/07 06:48:02;;;;;;;5.95;1.92;;;16.70;88.00;;;;;;6858902;28;20468;-79
2022/07/07 06:51:24;;;;;;;4.20;1.90;;;16.80;88.00;;;;;;6845110;28;20434;-79
2022/07/07 06:54:46;;;;;;;5.47;1.70;;;16.90;87.40;;;;;;6848700;28;20449;-78
2022/07/07 06:58:08;;;;;;;5.10;1.80;;;16.90;87.60;;;;;;6863825;28;20439;-77
2022/07/07 07:01:31;;;;;;;5.47;1.90;;;17.10;88.00;;;;;;6863618;28;20526;-79
2022/07/07 07:04:54;;;;;;;6.22;1.98;;;17.10;87.50;;;;;;6863516;28;20493;-79
2022/07/07 07:08:16;;;;;;;5.90;1.98;;;17.20;87.90;;;;;;6870390;28;20457;-81
2022/07/07 07:11:38;;;;;;;7.60;1.92;;;17.40;88.60;;;;;;6890109;28;20453;-78
2022/07/07 07:15:00;;;;;;;6.50;1.90;;;17.50;86.70;;;;;;6889967;28;20434;-76
2022/07/07 07:18:23;;;;;;;5.47;2.00;;;17.50;86.30;;;;;;6890182;28;20477;-76
2022/07/07 07:21:45;;;;;;;4.95;1.80;;;17.60;86.10;;;;;;6875093;28;20472;-79
2022/07/07 07:25:09;;;;;;;5.13;1.70;;;17.90;87.10;;;;;;6880617;28;20474;-79
2022/07/07 07:28:31;;;;;;;5.63;1.73;;;18.00;85.30;;;;;;6869553;28;20445;-80
2022/07/07 07:31:53;;;;;;;4.25;1.73;;;18.20;86.10;;;;;;6851148;28;20476;-78
2022/07/07 07:35:16;;;;;;;5.35;1.63;;;18.40;83.50;;;;;;6879058;28;20908;-78
2022/07/07 07:38:40;;;;;;;7.90;1.83;;;18.50;84.20;;;;;;6886157;28;20466;-79
2022/07/07 07:42:02;;;;;;;4.93;1.80;;;18.60;82.60;;;;;;6885756;28;20481;-79
2022/07/07 07:45:24;;;;;;;4.57;1.65;;;18.60;81.80;;;;;;6883885;28;20497;-79
2022/07/07 07:48:46;;;;;;;5.43;2.00;;;18.70;83.90;;;;;;6866672;28;20858;-78
2022/07/07 07:52:10;;;;;;;4.05;1.60;;;18.90;84.40;;;;;;6858285;28;20482;-80
2022/07/07 07:55:32;;;;;;;6.88;1.80;;;19.00;83.00;;;;;;6859065;28;20436;-80
2022/07/07 07:58:54;;;;;;;6.30;1.90;;;19.10;84.00;;;;;;6857521;28;20487;-79
2022/07/07 08:02:16;;;;;;;6.22;1.77;;;19.30;83.10;;;;;;6859017;28;20470;-79
2022/07/07 08:05:38;;;;;;;5.30;1.60;;;19.30;83.20;;;;;;6857653;28;20542;-78
2022/07/07 08:09:02;;;;;;;5.00;1.80;;;19.40;82.20;;;;;;6860311;28;20484;-78
2022/07/07 08:12:24;;;;;;;4.22;1.60;;;19.40;82.20;;;;;;6858682;28;20472;-79
2022/07/07 08:15:46;;;;;;;6.40;1.70;;;19.50;80.50;;;;;;6857261;28;20997;-78
2022/07/07 08:19:08;;;;;;;5.75;1.90;;;19.50;80.60;;;;;;6857364;28;20830;-80
2022/07/07 08:22:30;;;;;;;6.53;1.77;;;19.50;80.60;;;;;;6858126;28;20483;-80
2022/07/07 08:25:53;;;;;;;6.28;2.00;;;19.40;81.70;;;;;;6857123;28;20494;-79
2022/07/07 08:29:15;;;;;;;6.50;1.70;;;19.40;82.30;;;;;;6857786;28;20436;-79
2022/07/07 08:32:37;;;;;;;5.03;1.93;;;19.50;81.60;;;;;;6858169;28;20436;-80
2022/07/07 08:35:59;;;;;;;5.13;1.75;;;19.60;81.30;;;;;;6882538;28;20457;-79
2022/07/07 08:39:21;;;;;;;5.53;1.80;;;19.70;81.00;;;;;;6857774;28;20558;-80
2022/07/07 08:42:45;;;;;;;7.28;1.80;;;19.90;80.20;;;;;;6856313;28;20806;-78
2022/07/07 08:46:08;;;;;;;5.13;1.90;;;19.90;80.30;;;;;;6855410;28;20495;-80
2022/07/07 08:49:31;;;;;;;5.43;1.67;;;20.10;80.40;;;;;;6857752;28;20475;-79
2022/07/07 08:52:55;;;;;;;5.57;1.77;;;20.10;79.80;;;;;;6855978;28;20491;-78
2022/07/07 08:56:17;;;;;;;5.10;1.83;;;20.20;79.90;;;;;;6884005;28;20486;-78
2022/07/07 08:59:41;;;;;;;5.40;1.80;;;20.20;80.00;;;;;;6884068;28;20934;-77
2022/07/07 09:03:05;;;;;;;4.97;1.90;;;20.10;81.80;;;;;;6883666;28;20463;-80
2022/07/07 09:06:27;;;;;;;5.75;1.92;;;20.10;81.60;;;;;;6873594;28;20448;-79
2022/07/07 09:09:52;;;;;;;5.63;1.88;;;20.00;82.50;;;;;;6857350;28;21278;-80
2022/07/07 09:13:23;;;;;;;5.85;1.77;;;20.00;82.00;;;;;;6855870;28;20443;-79
2022/07/07 09:16:47;;;;;;;6.57;1.88;;;20.00;82.60;;;;;;6856310;28;20439;-79
2022/07/07 09:20:12;;;;;;;4.73;1.90;;;20.10;82.10;;;;;;6856051;28;20435;-80
2022/07/07 09:23:35;;;;;;;4.13;1.73;;;20.30;82.30;;;;;;6855896;28;20455;-79
2022/07/07 09:26:57;;;;;;;5.95;1.80;;;20.40;81.30;;;;;;6856711;28;20476;-80
2022/07/07 09:30:36;;;;;;;6.37;2.00;;;20.40;80.90;;;;;;6883007;28;20458;-78
2022/07/07 09:34:13;;;;;;;4.63;1.80;;;20.40;82.30;;;;;;6882944;28;20450;-80
2022/07/07 09:41:17;;;;;;;4.77;1.80;;;20.40;81.90;;;;;;6855148;28;20459;-80
2022/07/07 09:44:42;;;;;;;3.88;1.60;;;20.40;81.50;;;;;;6854398;28;21004;-79
2022/07/07 09:48:09;;;;;;;4.50;1.50;;;20.50;82.10;;;;;;6856096;28;20917;-79
2022/07/07 09:51:34;;;;;;;5.40;1.60;;;20.50;82.20;;;;;;6856678;28;20444;-78
2022/07/07 09:54:58;;;;;;;4.97;1.90;;;20.60;82.80;;;;;;6855202;28;20495;-79
2022/07/07 09:58:20;;;;;;;5.07;1.60;;;20.60;82.50;;;;;;6855507;28;20949;-78
2022/07/07 10:01:45;;;;;;;3.72;1.70;;;20.50;82.10;;;;;;6855255;28;20451;-78
2022/07/07 10:05:08;;;;;;;5.45;1.70;;;20.40;82.50;;;;;;6856009;28;20479;-78
2022/07/07 10:08:34;;;;;;;5.65;1.90;;;20.40;83.10;;;;;;6861186;28;20459;-78
2022/07/07 10:11:57;;;;;;;7.72;2.20;;;20.30;83.60;;;;;;6857904;28;20439;-79
2022/07/07 10:15:19;;;;;;;5.97;2.20;;;20.30;83.30;;;;;;6855842;28;20802;-79
2022/07/07 10:18:42;;;;;;;5.18;2.17;;;20.20;83.70;;;;;;6855611;28;20479;-79
2022/07/07 10:22:05;;;;;;;6.45;2.53;;;20.30;84.80;;;;;;6854656;28;20446;-79
2022/07/07 10:25:29;;;;;;;5.87;2.27;;;20.30;85.40;;;;;;6855523;28;20869;-79
2022/07/07 10:28:59;;;;;;;8.20;2.60;;;20.20;84.70;;;;;;6860439;28;20467;-80
2022/07/07 10:32:33;;;;;;;6.45;2.55;;;20.10;84.80;;;;;;6860752;28;20535;-78
2022/07/07 10:35:55;;;;;;;4.90;2.08;;;20.10;85.70;;;;;;6859626;28;20466;-79
2022/07/07 10:39:18;;;;;;;5.60;2.30;;;20.20;85.10;;;;;;6862282;28;20435;-78
2022/07/07 10:43:12;;;;;;;6.38;2.30;;;20.20;85.90;;;;;;6860740;28;20507;-79
2022/07/07 10:46:35;;;;;;;5.80;2.10;;;20.20;85.10;;;;;;6857712;28;20490;-78
2022/07/07 10:49:58;;;;;;;6.17;2.40;;;20.20;85.70;;;;;;6860158;28;21056;-79
2022/07/07 10:53:31;;;;;;;4.43;2.10;;;20.30;85.40;;;;;;6859998;28;20440;-80
2022/07/07 10:57:17;;;;;;;4.82;1.95;;;20.40;83.50;;;;;;6867973;28;20975;-81
2022/07/07 11:00:41;;;;;;;4.28;1.75;;;20.50;85.20;;;;;;6886493;28;20445;-78
2022/07/07 11:04:03;;;;;;;5.30;2.00;;;20.60;83.70;;;;;;6883300;28;20499;-79
2022/07/07 11:07:26;;;;;;;4.40;1.98;;;20.80;84.00;;;;;;6857892;28;20455;-79
2022/07/07 11:10:55;;;;;;;5.05;1.92;;;20.80;82.70;;;;;;6859410;28;20440;-78
2022/07/07 11:14:17;;;;;;;4.57;1.80;;;20.70;82.70;;;;;;6859563;28;20436;-80
2022/07/07 11:17:40;;;;;;;5.97;1.98;;;20.70;82.30;;;;;;6859356;28;20435;-81
2022/07/07 11:21:07;;;;;;;5.65;1.80;;;20.70;83.60;;;;;;6858363;28;20440;-81
2022/07/07 11:24:29;;;;;;;4.90;1.73;;;20.70;83.30;;;;;;6858882;28;20428;-78
2022/07/07 11:27:52;;;;;;;4.88;1.80;;;20.70;83.20;;;;;;6858820;28;20483;-79
2022/07/07 11:31:15;;;;;;;5.10;1.73;;;20.70;82.90;;;;;;6858636;28;20435;-80
2022/07/07 11:34:48;;;;;;;3.95;1.80;;;20.60;83.50;;;;;;6858291;28;20440;-80
2022/07/07 11:38:12;;;;;;;4.40;1.85;;;20.40;83.00;;;;;;6856429;28;20451;-81
2022/07/07 11:41:40;;;;;;;5.57;1.60;;;20.40;83.00;;;;;;6858384;28;20448;-79
2022/07/07 11:45:02;;;;;;;7.17;1.90;;;20.40;83.70;;;;;;6855947;28;20539;-81
2022/07/07 11:48:24;;;;;;;4.78;1.80;;;20.40;84.70;;;;;;6858550;28;20483;-79
2022/07/07 11:51:48;;;;;;;5.33;1.70;;;20.40;84.30;;;;;;6855221;28;20950;-81
2022/07/07 11:55:12;;;;;;;4.28;1.60;;;20.40;84.50;;;;;;6858373;28;20946;-79
2022/07/07 11:58:34;;;;;;;5.07;1.70;;;20.40;84.80;;;;;;6857216;28;20490;-80
2022/07/07 12:01:56;;;;;;;6.68;1.70;;;20.40;85.70;;;;;;6857942;28;20799;-77
2022/07/07 12:05:20;;;;;;;6.60;1.83;;;20.50;87.60;;;;;;6856786;28;20956;-79
2022/07/07 12:08:44;;;;;;;5.70;1.70;;;20.60;85.50;;;;;;6857849;28;20940;-79
2022/07/07 12:12:16;;;;;;;4.70;1.88;;;20.70;85.70;;;;;;6857291;28;20448;-81
2022/07/07 12:15:42;;;;;;;5.07;1.83;;;20.60;86.50;;;;;;6884930;28;20492;-80
2022/07/07 12:19:04;;;;;;;3.80;1.80;;;20.60;85.00;;;;;;6866959;28;20869;-78
2022/07/07 12:22:40;;;;;;;5.60;2.20;;;20.50;84.80;;;;;;6857257;28;20455;-77
2022/07/07 12:26:15;;;;;;;5.55;2.00;;;20.40;88.10;;;;;;6857564;28;20508;-78
2022/07/07 12:29:37;;;;;;;6.00;1.85;;;20.40;90.00;;;;;;6855685;28;20463;-80
2022/07/07 12:33:00;;;;;;;9.57;2.45;;;20.40;91.00;;;;;;6857651;28;20503;-79
2022/07/07 12:36:24;;;;;;;4.10;1.80;;;20.40;91.00;;;;;;6860813;28;20478;-78
2022/07/07 12:39:50;;;;;;;6.15;1.80;;;20.30;91.00;;;;;;6857398;28;20535;-79
2022/07/07 12:43:14;;;;;;;6.03;2.00;;;20.40;90.70;;;;;;6857152;28;20451;-81
2022/07/07 12:46:36;;;;;;;5.35;1.80;;;20.40;90.60;;;;;;6855060;28;20451;-79
2022/07/07 12:49:59;;;;;;;5.88;1.92;;;20.40;90.30;;;;;;6855379;28;20530;-80
2022/07/07 12:53:21;;;;;;;5.88;1.83;;;20.40;90.50;;;;;;6856733;28;20439;-77
2022/07/07 12:56:43;;;;;;;5.05;1.80;;;20.30;90.40;;;;;;6856592;28;20918;-80
2022/07/07 13:00:10;;;;;;;5.10;1.83;;;20.40;89.70;;;;;;6856537;28;20478;-80
2022/07/07 13:03:33;;;;;;;6.20;2.13;;;20.40;89.10;;;;;;6854954;28;20515;-79
2022/07/07 13:06:55;;;;;;;4.93;1.70;;;20.60;89.80;;;;;;6855060;28;20448;-82
2022/07/07 13:10:17;;;;;;;5.22;1.75;;;20.60;89.80;;;;;;6856394;28;20471;-80
2022/07/07 13:13:40;;;;;;;4.85;1.70;;;20.70;90.10;;;;;;6861743;28;20455;-80
2022/07/07 13:17:04;;;;;;;4.07;1.60;;;20.60;89.70;;;;;;6854992;28;20914;-81
2022/07/07 13:20:26;;;;;;;4.30;1.52;;;20.60;88.90;;;;;;6856374;28;20490;-79
2022/07/07 13:23:48;;;;;;;4.53;1.60;;;20.60;88.40;;;;;;6856453;28;20440;-80
2022/07/07 13:27:10;;;;;;;5.55;1.73;;;20.60;89.50;;;;;;6856455;28;20448;-77
2022/07/07 13:30:32;;;;;;;4.60;1.55;;;20.70;89.20;;;;;;6855554;28;20480;-80
2022/07/07 13:33:56;;;;;;;5.20;1.60;;;20.80;88.70;;;;;;6855613;28;20476;-80
2022/07/07 13:37:18;;;;;;;6.10;1.73;;;20.90;89.10;;;;;;6855602;28;20479;-79
2022/07/07 13:40:41;;;;;;;4.83;1.60;;;21.00;88.00;;;;;;6881968;28;20586;-79
2022/07/07 13:44:04;;;;;;;4.00;1.90;;;21.10;88.10;;;;;;6864298;28;20932;-78
2022/07/07 13:47:26;;;;;;;4.15;1.45;;;21.00;86.10;;;;;;6880769;28;20950;-80
2022/07/07 13:50:50;;;;;;;4.78;1.60;;;20.90;87.30;;;;;;6856014;28;20947;-83
2022/07/07 13:54:12;;;;;;;4.07;1.63;;;21.00;88.30;;;;;;6854930;28;20447;-80
2022/07/07 13:57:34;;;;;;;4.00;1.60;;;21.10;87.40;;;;;;6854072;28;20575;-78
2022/07/07 14:00:56;;;;;;;5.30;1.60;;;21.00;85.60;;;;;;6873030;28;20541;-79
2022/07/07 14:04:18;;;;;;;3.83;1.60;;;20.90;84.60;;;;;;6854632;28;20886;-80
2022/07/07 14:07:43;;;;;;;4.13;1.60;;;20.80;86.00;;;;;;6854390;28;20455;-79
2022/07/07 14:11:06;;;;;;;3.53;1.60;;;21.00;85.20;;;;;;6828846;28;20472;-78
2022/07/07 14:14:28;;;;;;;5.22;1.58;;;21.00;84.70;;;;;;6820769;28;20451;-79
2022/07/07 14:17:50;;;;;;;3.65;1.50;;;20.90;84.30;;;;;;6824886;28;20718;-80
2022/07/07 14:21:12;;;;;;;3.17;1.33;;;20.80;85.20;;;;;;6830263;28;20527;-79
2022/07/07 14:24:36;;;;;;;3.88;1.38;;;20.90;84.30;;;;;;6812349;28;20456;-78
2022/07/07 14:27:58;;;;;;;4.55;1.52;;;20.80;84.00;;;;;;6838342;28;20490;-75
2022/07/07 14:31:20;;;;;;;5.75;1.50;;;20.80;85.60;;;;;;6857957;28;20432;-77
2022/07/07 14:34:42;;;;;;;4.85;1.50;;;20.80;86.00;;;;;;6858369;28;20981;-80
2022/07/07 14:38:04;;;;;;;5.50;1.60;;;20.70;86.90;;;;;;6855545;28;20443;-77
2022/07/07 14:41:28;;;;;;;6.07;1.60;;;20.70;87.30;;;;;;6855878;28;20834;-78
2022/07/07 14:44:50;;;;;;;4.20;1.20;;;20.50;89.90;;;;;;6854229;28;21413;-77
2022/07/07 14:48:12;;;;;;;3.67;1.20;;;20.40;90.60;;;;;;6855402;28;20480;-77
2022/07/07 14:51:34;;;;;;;4.07;1.38;;;20.20;91.40;;;;;;6854313;28;20463;-77
2022/07/07 14:54:56;;;;;;;4.72;1.25;;;20.10;92.10;;;;;;6861252;28;20800;-75
2022/07/07 14:58:20;;;;;;;6.20;1.30;;;20.10;92.50;;;;;;6853063;28;20538;-77
2022/07/07 15:01:42;;;;;;;2.50;1.02;;;19.90;92.50;;;;;;6856501;28;20488;-77
2022/07/07 15:05:05;;;;;;;3.30;1.00;;;19.90;92.60;;;;;;6828531;29;20463;-76
2022/07/07 15:08:27;;;;;;;2.85;1.00;;;19.80;93.00;;;;;;6851441;28;20495;-76
2022/07/07 15:11:49;;;;;;;2.95;1.00;;;19.90;92.60;;;;;;6854623;28;20479;-76
2022/07/07 15:15:12;;;;;;;2.60;1.00;;;19.70;92.60;;;;;;6883424;28;20442;-76
2022/07/07 15:18:34;;;;;;;2.85;1.00;;;19.70;93.30;;;;;;6867290;28;20443;-76
2022/07/07 15:21:57;;;;;;;3.15;1.15;;;19.80;93.60;;;;;;6858294;28;20977;-76
2022/07/07 15:25:19;;;;;;;3.47;1.10;;;19.80;93.40;;;;;;6858486;28;20498;-77
2022/07/07 15:28:41;;;;;;;3.90;1.27;;;19.70;93.30;;;;;;6857204;28;20853;-77
2022/07/07 15:32:06;;;;;;;3.28;1.10;;;19.70;93.50;;;;;;6862339;28;20449;-76
2022/07/07 15:35:28;;;;;;;4.60;1.02;;;19.70;93.40;;;;;;6859980;28;20451;-77
2022/07/07 15:38:50;;;;;;;3.20;1.02;;;19.70;93.40;;;;;;6853995;28;20982;-76
2022/07/07 15:42:12;;;;;;;3.10;1.10;;;19.70;93.70;;;;;;6855728;28;20530;-76
2022/07/07 15:45:34;;;;;;;3.35;1.10;;;19.90;93.80;;;;;;6853898;28;20459;-77
2022/07/07 15:48:58;;;;;;;4.40;1.15;;;19.90;93.60;;;;;;6856610;28;20492;-75
2022/07/07 15:52:20;;;;;;;3.28;1.23;;;19.90;93.30;;;;;;6857527;28;20447;-78
2022/07/07 15:55:42;;;;;;;4.60;1.05;;;19.80;93.30;;;;;;6859110;28;20476;-77
2022/07/07 15:59:04;;;;;;;4.13;1.00;;;19.90;93.10;;;;;;6838552;28;20484;-77
2022/07/07 16:02:27;;;;;;;2.30;0.98;;;19.80;93.00;;;;;;6860230;28;20475;-75
2022/07/07 16:05:51;;;;;;;3.00;0.90;;;19.80;92.70;;;;;;6857709;28;20491;-76
2022/07/07 16:09:13;;;;;;;3.40;0.90;;;19.70;92.60;;;;;;6859284;28;20468;-75
2022/07/07 16:12:35;;;;;;;3.10;1.00;;;19.70;92.50;;;;;;6857503;28;20909;-76
2022/07/07 16:15:57;;;;;;;2.70;0.90;;;19.60;92.40;;;;;;6855991;28;20535;-76
2022/07/07 16:19:19;;;;;;;3.55;0.95;;;19.50;92.70;;;;;;6858411;28;20440;-76
2022/07/07 16:22:43;;;;;;;2.83;0.90;;;19.60;92.30;;;;;;6859010;28;20887;-75
2022/07/07 16:26:05;;;;;;;2.80;0.90;;;19.40;92.40;;;;;;6854365;28;20494;-75
2022/07/07 16:29:27;;;;;;;4.45;0.80;;;19.50;92.70;;;;;;6855105;28;20439;-77
2022/07/07 16:32:49;;;;;;;2.60;0.90;;;19.50;92.60;;;;;;6853008;28;20480;-76
2022/07/07 16:36:11;;;;;;;3.45;1.05;;;19.50;92.70;;;;;;6856659;28;20584;-77
2022/07/07 16:39:34;;;;;;;3.28;0.98;;;19.50;92.50;;;;;;6857629;28;20440;-74
2022/07/07 16:42:56;;;;;;;3.35;0.90;;;19.60;92.70;;;;;;6856274;28;20929;-75
2022/07/07 16:46:18;;;;;;;3.85;1.05;;;19.50;92.80;;;;;;6856297;28;20985;-77
2022/07/07 16:49:40;;;;;;;2.05;1.00;;;19.50;92.90;;;;;;6862937;28;20936;-74
2022/07/07 16:53:03;;;;;;;3.00;1.00;;;19.60;92.80;;;;;;6854649;28;20467;-77
2022/07/07 16:56:26;;;;;;;3.50;1.00;;;19.70;92.20;;;;;;6866848;28;20477;-79
2022/07/07 16:59:48;;;;;;;3.15;1.00;;;19.70;92.50;;;;;;6869891;28;20481;-77
2022/07/07 17:03:10;;;;;;;2.80;1.10;;;19.80;92.20;;;;;;6863537;28;20472;-78
2022/07/07 17:06:32;;;;;;;2.72;0.90;;;19.80;92.20;;;;;;6856160;28;20990;-77
2022/07/07 17:09:54;;;;;;;2.80;1.00;;;20.00;91.60;;;;;;6867250;28;20959;-77
2022/07/07 17:13:18;;;;;;;3.20;1.15;;;20.10;91.10;;;;;;6860834;28;20513;-77
2022/07/07 17:16:40;;;;;;;3.13;1.10;;;20.10;90.80;;;;;;6856242;28;21147;-77
2022/07/07 17:20:02;;;;;;;3.25;1.17;;;20.20;90.70;;;;;;6855774;28;21146;-76
2022/07/07 17:23:24;;;;;;;5.00;1.17;;;20.50;89.40;;;;;;6861756;28;20921;-77
2022/07/07 17:26:47;;;;;;;3.03;1.20;;;20.50;88.90;;;;;;6847069;28;20508;-77
2022/07/07 17:30:12;;;;;;;4.57;1.20;;;20.40;89.00;;;;;;6855508;28;20447;-79
2022/07/07 17:33:35;;;;;;;3.25;1.08;;;20.40;88.60;;;;;;6854739;28;20856;-79
2022/07/07 17:36:57;;;;;;;4.10;1.30;;;20.40;88.50;;;;;;6852275;28;20879;-76
2022/07/07 17:40:20;;;;;;;3.70;1.30;;;20.50;87.80;;;;;;6829548;29;20472;-77
2022/07/07 17:43:42;;;;;;;4.27;1.30;;;20.40;87.40;;;;;;6851209;28;20453;-80